• Join FlightAware (Why Join?)
  • Login
  • US Flag 
09:05AM EST


 

Airport Tracker/Info


-or-


 

Live Flight TrackerFlight Track Log ✈ SWA2852 ✈ 25-Apr-2013 ✈ KBNA - KMCI

Flight Track Log - Related Links

Times and Time Zones

All times are in EDT time to prevent confusion due to time zone crossing. See the SWA2852 flight status page for this flight to view local times or setup timezone preferences in your user account.

Time Position Orientation Groundspeed Altitude Reporting Facility
EDT Latitude Longitude Course Direction KTS MPH feet Rate Location/Type
07:40AM 36.1333 -86.6833 287° West 153 176 1,500  Level Nashville TRACON
07:41AM 36.1500 -86.7500 287° West 230 265 4,500 3,600 Climbing Nashville TRACON
07:42AM 36.1583 -86.8300 277° West 249 287 8,100 4,080 Climbing Memphis Center
07:43AM 36.1817 -86.9114 290° West 269 310 12,000 3,960 Climbing Memphis Center
07:44AM 36.2114 -87.0156 290° West 305 351 16,100 3,720 Climbing Memphis Center
07:45AM 36.2414 -87.1225 289° West 319 367 19,500 3,540 Climbing Memphis Center
07:46AM 36.2692 -87.2294 288° West 325 374 23,200 2,940 Climbing Memphis Center
07:47AM 36.2883 -87.3317 283° West 331 381 25,400 2,340 Climbing Memphis Center
07:48AM 36.3058 -87.4494 280° West 344 396 27,900 2,700 Climbing Memphis Center
07:49AM 36.3397 -87.5617 291° West 349 402 30,800 2,880 Climbing Memphis Center
07:50AM 36.3858 -87.6658 299° West 351 404 33,700 2,040 Climbing Memphis Center
07:51AM 36.4339 -87.7672 301° West 345 397 34,900 1,500 Climbing Memphis Center
07:52AM 36.4797 -87.8717 299° West 345 397 36,800 1,620 Climbing Memphis Center
07:53AM 36.5319 -87.9836 300° West 345 397 38,200 1,380 Climbing Memphis Center
07:54AM 36.5778 -88.0908 298° West 345 397 39,600 900 Climbing Memphis Center
07:55AM 36.6231 -88.1825 302° West 345 397 40,000 180 Climbing Memphis Center
07:56AM 36.6561 -88.2903 291° West 345 397 40,000  Level Memphis Center
07:57AM 36.6769 -88.4064 283° West 340 391 40,000  Level Memphis Center
07:58AM 36.6933 -88.5222 280° West 340 391 40,000  Level Memphis Center
07:59AM 36.7114 -88.6358 281° West 340 391 40,000  Level Memphis Center
08:00AM 36.7297 -88.7519 281° West 340 391 40,000  Level Memphis Center
08:01AM 36.7478 -88.8653 281° West 340 391 40,000  Level Memphis Center
08:02AM 36.7658 -88.9817 281° West 340 391 40,000  Level Memphis Center
08:03AM 36.7836 -89.0978 281° West 340 391 40,000  Level Memphis Center
08:04AM 36.8017 -89.2117 281° West 340 391 40,000  Level Memphis Center
08:05AM 36.8192 -89.3306 280° West 340 391 40,000  Level Memphis Center
08:06AM 36.8431 -89.4417 285° West 340 391 40,000  Level Memphis Center
08:08AM 36.9033 -89.6342 291° West 345 397 40,000  Level Kansas City Center
08:09AM 36.9392 -89.7442 292° West 344 396 40,000  Level Kansas City Center
08:10AM 36.9803 -89.8756 291° West 340 391 40,000  Level Kansas City Center
08:11AM 37.0144 -89.9856 291° West 340 391 40,000  Level Kansas City Center
08:12AM 37.0483 -90.0956 291° West 340 391 40,000  Level Kansas City Center
08:13AM 37.0822 -90.2047 291° West 338 389 40,000  Level Kansas City Center
08:14AM 37.1178 -90.3158 292° West 341 392 40,000  Level Kansas City Center
08:15AM 37.1506 -90.4269 290° West 342 394 40,000  Level Kansas City Center
08:16AM 37.1847 -90.5361 291° West 339 390 40,000  Level Kansas City Center
08:17AM 37.2175 -90.6447 291° West 334 384 40,000  Level Kansas City Center
08:18AM 37.2508 -90.7539 291° West 335 386 40,000  Level Kansas City Center
08:19AM 37.2900 -90.8808 291° West 330 380 40,000  Level Kansas City Center
08:20AM 37.3217 -90.9900 290° West 330 380 40,000  Level Kansas City Center
08:21AM 37.3561 -91.0989 292° West 333 383 40,000  Level Kansas City Center
08:22AM 37.3883 -91.2106 290° West 338 389 40,000  Level Kansas City Center
08:23AM 37.4214 -91.3231 290° West 341 392 40,000  Level Kansas City Center
08:24AM 37.4556 -91.4339 291° West 340 391 40,000  Level Kansas City Center
08:25AM 37.4881 -91.5464 290° West 340 391 40,000  Level Kansas City Center
08:26AM 37.5217 -91.6572 291° West 338 389 40,000  Level Kansas City Center
08:27AM 37.5536 -91.7694 290° West 339 390 40,000  Level Kansas City Center
08:29AM 37.5869 -91.8825 290° West 340 391 40,000  Level Kansas City Center
08:30AM 37.6194 -91.9950 290° West 340 391 40,000  Level Kansas City Center
08:31AM 37.6556 -92.1197 290° West 341 392 40,000  Level Kansas City Center
08:32AM 37.6881 -92.2331 290° West 342 394 40,000  Level Kansas City Center
08:33AM 37.7211 -92.3461 290° West 343 395 40,000 -420 Level Kansas City Center
08:34AM 37.7536 -92.4592 290° West 342 394 39,200 -900 Descending Kansas City Center
08:35AM 37.7858 -92.5728 290° West 343 395 38,200 -1,680 Descending Kansas City Center
08:36AM 37.8178 -92.6811 290° West 335 386 35,900 -2,040 Descending Kansas City Center
08:37AM 37.8533 -92.8081 290° West 327 376 34,100 -960 Descending Kansas City Center
08:38AM 37.8842 -92.9147 290° West 323 372 34,000 -60 Descending Kansas City Center
08:39AM 37.9144 -93.0211 290° West 320 368 34,000  Level Kansas City Center
08:40AM 37.9444 -93.1286 290° West 322 371 34,000  Level Kansas City Center
08:41AM 37.9747 -93.2361 290° West 323 372 34,000  Level Kansas City Center
08:42AM 38.0044 -93.3453 289° West 324 373 34,000  Level Kansas City Center
08:43AM 38.0347 -93.4533 290° West 325 374 34,000  Level Kansas City Center
08:44AM 38.0897 -93.5472 307° West 340 391 34,000  Level Kansas City Center
08:45AM 38.1667 -93.6178 324° Northwest 340 391 34,000  Level Kansas City Center
08:46AM 38.2472 -93.6864 326° Northwest 343 395 34,000 -1,080 Level Kansas City Center
08:47AM 38.3222 -93.7567 324° Northwest 337 388 31,800 -2,520 Descending Kansas City Center
08:48AM 38.4139 -93.8392 325° Northwest 334 384 28,800 -2,700 Descending Kansas City Center
08:49AM 38.4858 -93.9033 325° Northwest 334 384 26,400 -2,460 Descending Kansas City Center
08:50AM 38.5617 -93.9706 325° Northwest 342 394 23,900 -2,520 Descending Kansas City Center
08:51AM 38.6444 -94.0489 324° Northwest 331 381 21,300 -2,280 Descending Kansas City Center
08:52AM 38.7133 -94.1136 324° Northwest 321 369 19,200 -2,040 Descending Kansas City Center
08:53AM 38.7836 -94.1906 320° Northwest 299 344 17,200 -2,160 Descending Kansas City Center
08:54AM 38.8442 -94.2575 319° Northwest 297 342 14,900 -2,160 Descending Kansas City Center
08:55AM 38.9036 -94.3211 320° Northwest 291 335 12,800 -1,500 Descending Kansas City Center
08:56AM 38.9681 -94.3919 319° Northwest 271 312 11,900 -480 Descending Kansas City Center
08:57AM 39.0192 -94.4461 321° Northwest 252 290 11,900 -300 Level Kansas City Center
08:58AM 39.0769 -94.5094 320° Northwest 245 282 11,300 -540 Descending Kansas City Center
08:59AM 39.1275 -94.5642 320° Northwest 248 285 10,900 -240 Descending Kansas City Center
09:00AM 39.1811 -94.6083 327° Northwest 247 284 10,900 -960 Level Kansas City Center
09:01AM 39.2572 -94.5872 12° North 247 284 9,000 -1,800 Descending Kansas City Center
09:02AM 39.3203 -94.5681 13° North 244 281 7,300 -1,680 Descending Kansas City Center
09:03AM 39.3842 -94.5467 15° North 212 244 5,700 -1,500 Descending Kansas City Center
09:04AM 39.4069 -94.5917 303° West 187 215 4,300 -1,260 Descending Kansas City Center
09:05AM 39.3892 -94.6636 252° West 186 214 3,100 -1,140 Descending Kansas City Center
09:06AM 39.3583 -94.6881 212° Southwest 137 158 2,100 -840 Descending Kansas City Center
09:07AM 39.3247 -94.6967 191° South 129 148 1,500 -540 Descending Kansas City Center
09:08AM 39.2858 -94.7078 192° South 125 144 1,000 -540 Descending Kansas City Center